createdAt,value
2023-03-29T00:01:03.268Z,-1.71
2023-03-29T00:03:35.864Z,-1.72
2023-03-29T00:06:08.654Z,-1.74
2023-03-29T00:08:40.862Z,-1.76
2023-03-29T00:11:13.076Z,-1.77
2023-03-29T00:13:45.065Z,-1.79
2023-03-29T00:16:17.759Z,-1.79
2023-03-29T00:18:49.800Z,-1.81
2023-03-29T00:21:22.485Z,-1.83
2023-03-29T00:23:54.656Z,-1.84
2023-03-29T00:26:26.867Z,-1.86
2023-03-29T00:28:58.848Z,-1.88
2023-03-29T00:31:31.642Z,-1.89
2023-03-29T00:34:03.658Z,-1.91
2023-03-29T00:36:35.487Z,-1.92
2023-03-29T00:39:07.433Z,-1.94
2023-03-29T00:41:39.302Z,-1.95
2023-03-29T00:44:42.071Z,-1.95
2023-03-29T00:47:14.043Z,-1.98
2023-03-29T00:49:46.339Z,-1.98
2023-03-29T00:52:21.582Z,-2.01
2023-03-29T00:54:56.123Z,-2.03
2023-03-29T00:57:30.566Z,-2.04
2023-03-29T01:00:05.497Z,-2.06
2023-03-29T01:02:40.025Z,-2.06
2023-03-29T01:05:14.974Z,-2.08
2023-03-29T01:07:52.360Z,-2.09
2023-03-29T01:10:28.992Z,-2.10
2023-03-29T01:13:06.214Z,-2.11
2023-03-29T01:15:38.430Z,-2.13
2023-03-29T01:18:10.684Z,-2.13
2023-03-29T01:20:51.468Z,-2.13
2023-03-29T01:23:41.300Z,-2.14
2023-03-29T01:26:18.171Z,-2.16
2023-03-29T01:28:56.920Z,-2.20
2023-03-29T01:31:31.086Z,-2.21
2023-03-29T01:34:07.014Z,-2.23
2023-03-29T01:36:42.668Z,-2.25
2023-03-29T01:39:14.566Z,-2.27
2023-03-29T01:41:53.533Z,-2.28
2023-03-29T01:44:30.776Z,-2.30
2023-03-29T01:47:08.660Z,-2.32
2023-03-29T01:49:43.922Z,-2.33
2023-03-29T01:52:18.311Z,-2.34
2023-03-29T01:54:54.400Z,-2.35
2023-03-29T01:57:28.140Z,-2.38
2023-03-29T02:00:00.891Z,-2.39
2023-03-29T02:02:33.469Z,-2.42
2023-03-29T02:05:05.943Z,-2.44
2023-03-29T02:07:40.804Z,-2.45
2023-03-29T02:10:14.646Z,-2.47
2023-03-29T02:12:46.486Z,-2.49
2023-03-29T02:15:20.576Z,-2.49
2023-03-29T02:17:51.147Z,-2.52
2023-03-29T02:20:26.138Z,-2.53
2023-03-29T02:23:02.968Z,-2.54
2023-03-29T02:25:35.120Z,-2.55
2023-03-29T02:28:07.973Z,-2.57
2023-03-29T02:30:46.632Z,-2.58
2023-03-29T02:33:24.058Z,-2.59
2023-03-29T02:35:57.988Z,-2.60
2023-03-29T02:38:31.501Z,-2.61
2023-03-29T02:41:04.211Z,-2.62
2023-03-29T02:43:37.832Z,-2.63
2023-03-29T02:46:10.302Z,-2.64
2023-03-29T02:48:42.526Z,-2.64
2023-03-29T02:51:19.929Z,-2.64
2023-03-29T02:53:56.157Z,-2.65
2023-03-29T02:56:28.545Z,-2.65
2023-03-29T02:59:00.618Z,-2.65
2023-03-29T03:01:32.790Z,-2.66
2023-03-29T03:04:04.889Z,-2.66
2023-03-29T03:06:37.633Z,-2.68
2023-03-29T03:09:10.102Z,-2.68
2023-03-29T03:11:42.451Z,-2.68
2023-03-29T03:14:14.185Z,-2.68
2023-03-29T03:16:46.661Z,-2.69
2023-03-29T03:19:19.187Z,-2.69
2023-03-29T03:21:51.242Z,-2.70
2023-03-29T03:24:23.111Z,-2.70
2023-03-29T03:26:55.496Z,-2.71
2023-03-29T03:29:28.487Z,-2.71
2023-03-29T03:32:01.221Z,-2.72
2023-03-29T03:34:34.786Z,-2.72
2023-03-29T03:37:06.919Z,-2.72
2023-03-29T03:39:38.973Z,-2.72
2023-03-29T03:42:11.496Z,-2.72
2023-03-29T03:44:45.002Z,-2.72
2023-03-29T03:47:17.151Z,-2.72
2023-03-29T03:49:49.065Z,-2.73
2023-03-29T03:52:21.568Z,-2.73
2023-03-29T03:54:53.568Z,-2.73
2023-03-29T03:57:25.515Z,-2.74
2023-03-29T03:59:57.596Z,-2.75
2023-03-29T04:02:29.700Z,-2.75
2023-03-29T04:05:03.525Z,-2.76
2023-03-29T04:07:37.196Z,-2.76
2023-03-29T04:10:11.269Z,-2.76
2023-03-29T04:12:41.774Z,-2.76
2023-03-29T04:15:13.777Z,-2.77
2023-03-29T04:17:46.141Z,-2.77
2023-03-29T04:20:18.924Z,-2.77
2023-03-29T04:22:50.990Z,-2.76
2023-03-29T04:25:23.374Z,-2.77
2023-03-29T04:27:55.663Z,-2.77
2023-03-29T04:30:28.197Z,-2.77
2023-03-29T04:33:00.318Z,-2.77
2023-03-29T04:35:32.499Z,-2.76
2023-03-29T04:38:10.314Z,-2.75
2023-03-29T04:40:43.907Z,-2.73
2023-03-29T04:43:16.128Z,-2.73
2023-03-29T04:45:48.042Z,-2.71
2023-03-29T04:48:20.333Z,-2.70
2023-03-29T04:50:52.402Z,-2.66
2023-03-29T04:53:24.687Z,-2.63
2023-03-29T04:55:59.016Z,-2.59
2023-03-29T04:58:32.505Z,-2.55
2023-03-29T05:01:05.906Z,-2.52
2023-03-29T05:03:37.837Z,-2.49
2023-03-29T05:06:12.200Z,-2.48
2023-03-29T05:08:44.817Z,-2.45
2023-03-29T05:11:17.643Z,-2.43
2023-03-29T05:13:49.825Z,-2.41
2023-03-29T05:16:21.931Z,-2.38
2023-03-29T05:18:55.496Z,-2.36
2023-03-29T05:21:28.494Z,-2.34
2023-03-29T05:24:00.625Z,-2.31
2023-03-29T05:26:32.475Z,-2.27
2023-03-29T05:29:04.837Z,-2.24
2023-03-29T05:31:37.905Z,-2.21
2023-03-29T05:34:09.891Z,-2.20
2023-03-29T05:36:42.926Z,-2.18
2023-03-29T05:39:15.729Z,-2.15
2023-03-29T05:41:47.610Z,-2.12
2023-03-29T05:44:20.450Z,-2.01
2023-03-29T05:46:52.205Z,-1.65
2023-03-29T05:49:24.579Z,-1.33
2023-03-29T05:51:57.273Z,-1.38
2023-03-29T05:54:29.713Z,-1.40
2023-03-29T05:57:01.777Z,-1.42
2023-03-29T05:59:34.196Z,-1.43
2023-03-29T06:02:06.108Z,-1.44
2023-03-29T06:04:38.664Z,-1.43
2023-03-29T06:07:12.530Z,-1.41
2023-03-29T06:09:44.964Z,-1.39
2023-03-29T06:12:20.154Z,-1.34
2023-03-29T06:14:52.282Z,-1.32
2023-03-29T06:17:24.239Z,-1.30
2023-03-29T06:19:57.954Z,-1.26
2023-03-29T06:22:32.603Z,-1.21
2023-03-29T06:25:04.695Z,-1.16
2023-03-29T06:27:36.830Z,-1.11
2023-03-29T06:30:10.588Z,-1.06
2023-03-29T06:32:42.577Z,-1.02
2023-03-29T06:35:15.199Z,-0.96
2023-03-29T06:37:50.487Z,-0.90
2023-03-29T06:40:23.074Z,-0.85
2023-03-29T06:42:57.985Z,-0.78
2023-03-29T06:45:31.000Z,-0.72
2023-03-29T06:48:03.387Z,-0.66
2023-03-29T06:50:35.892Z,-0.61
2023-03-29T06:53:07.854Z,-0.60
2023-03-29T06:55:39.995Z,-0.57
2023-03-29T06:58:11.978Z,-0.53
2023-03-29T07:00:44.102Z,-0.48
2023-03-29T07:03:20.519Z,-0.43
2023-03-29T07:05:53.174Z,-0.38
2023-03-29T07:08:31.385Z,-0.32
2023-03-29T07:11:04.108Z,-0.27
2023-03-29T07:13:36.940Z,-0.21
2023-03-29T07:16:12.898Z,-0.15
2023-03-29T07:18:45.570Z,-0.04
2023-03-29T07:21:17.875Z,0.04
2023-03-29T07:23:49.781Z,0.13
2023-03-29T07:26:28.946Z,0.24
2023-03-29T07:29:02.069Z,0.30
2023-03-29T07:31:35.969Z,0.38
2023-03-29T07:34:10.882Z,0.46
2023-03-29T07:36:45.414Z,0.55
2023-03-29T07:39:17.748Z,0.64
2023-03-29T07:41:50.174Z,0.75
2023-03-29T07:44:25.882Z,0.87
2023-03-29T07:47:00.325Z,1.00
2023-03-29T07:49:32.317Z,1.12
2023-03-29T07:52:04.620Z,1.25
2023-03-29T07:54:36.672Z,1.40
2023-03-29T07:57:08.616Z,1.57
2023-03-29T07:59:40.794Z,1.77
2023-03-29T08:02:14.183Z,1.97
2023-03-29T08:04:47.095Z,2.18
2023-03-29T08:07:21.327Z,2.43
2023-03-29T08:09:53.348Z,2.69
2023-03-29T08:12:25.208Z,2.90
2023-03-29T08:14:57.381Z,3.08
2023-03-29T08:17:29.931Z,3.31
2023-03-29T08:20:02.391Z,3.53
2023-03-29T08:22:35.086Z,3.74
2023-03-29T08:25:08.437Z,3.95
2023-03-29T08:27:40.540Z,4.11
2023-03-29T08:30:17.487Z,4.18
2023-03-29T08:32:52.293Z,4.38
2023-03-29T08:35:25.761Z,4.58
2023-03-29T08:37:57.746Z,4.66
2023-03-29T08:40:31.306Z,4.68
2023-03-29T08:43:18.110Z,4.73
2023-03-29T08:45:57.288Z,4.78
2023-03-29T08:48:32.162Z,4.89
2023-03-29T08:51:09.322Z,5.04
2023-03-29T08:53:45.304Z,5.27
2023-03-29T08:56:19.697Z,5.41
2023-03-29T08:58:53.203Z,5.47
2023-03-29T09:01:26.977Z,5.46
2023-03-29T09:04:05.531Z,5.52
2023-03-29T09:06:37.524Z,5.51
2023-03-29T09:09:16.803Z,5.56
2023-03-29T09:12:11.513Z,5.70
2023-03-29T09:14:52.438Z,6.02
2023-03-29T09:17:34.338Z,6.26
2023-03-29T09:20:15.689Z,6.67
2023-03-29T09:22:56.694Z,6.88
2023-03-29T09:25:40.965Z,6.76
2023-03-29T09:28:22.707Z,6.83
2023-03-29T09:31:00.887Z,6.92
2023-03-29T09:33:42.786Z,6.96
2023-03-29T09:36:18.490Z,7.02
2023-03-29T09:38:54.470Z,7.26
2023-03-29T09:41:31.704Z,7.51
2023-03-29T09:44:10.754Z,7.69
2023-03-29T09:46:47.397Z,7.62
2023-03-29T09:49:22.320Z,7.41
2023-03-29T09:51:54.394Z,7.31
2023-03-29T09:54:26.627Z,7.33
2023-03-29T09:56:59.439Z,7.43
2023-03-29T09:59:31.474Z,7.49
2023-03-29T10:02:11.203Z,7.58
2023-03-29T10:04:43.609Z,7.61
2023-03-29T10:07:21.025Z,7.59
2023-03-29T10:09:55.302Z,7.60
2023-03-29T10:12:27.697Z,7.81
2023-03-29T10:15:02.929Z,8.01
2023-03-29T10:17:42.828Z,8.25
2023-03-29T10:20:18.482Z,8.48
2023-03-29T10:22:55.912Z,8.62
2023-03-29T10:25:31.580Z,8.80
2023-03-29T10:28:08.091Z,9.11
2023-03-29T10:30:40.966Z,9.09
2023-03-29T10:33:20.451Z,9.00
2023-03-29T10:35:53.634Z,8.87
2023-03-29T10:38:28.333Z,8.85
2023-03-29T10:41:08.182Z,8.91
2023-03-29T10:43:44.340Z,8.80
2023-03-29T10:46:24.137Z,8.80
2023-03-29T10:48:59.225Z,8.95
2023-03-29T10:51:32.409Z,9.08
2023-03-29T10:54:05.777Z,9.26
2023-03-29T10:56:40.711Z,9.37
2023-03-29T10:59:28.447Z,9.26
2023-03-29T11:02:24.406Z,9.29
2023-03-29T11:05:06.605Z,9.45
2023-03-29T11:07:42.029Z,9.92
2023-03-29T11:10:31.093Z,10.32
2023-03-29T11:13:09.057Z,10.31
2023-03-29T11:15:50.297Z,10.45
2023-03-29T11:19:04.079Z,10.45
2023-03-29T11:21:39.713Z,10.65
2023-03-29T11:24:28.184Z,10.69
2023-03-29T11:27:12.530Z,10.58
2023-03-29T11:29:52.865Z,10.62
2023-03-29T11:32:33.599Z,10.62
2023-03-29T11:35:16.626Z,10.83
2023-03-29T11:37:54.167Z,10.86
2023-03-29T11:40:36.140Z,10.69
2023-03-29T11:43:12.900Z,10.70
2023-03-29T11:45:48.148Z,10.74
2023-03-29T11:48:22.394Z,11.01
2023-03-29T11:50:56.338Z,11.44
2023-03-29T11:53:28.222Z,11.52
2023-03-29T11:56:12.084Z,11.55
2023-03-29T11:58:46.123Z,11.63
2023-03-29T12:01:17.354Z,11.63
2023-03-29T12:03:56.824Z,11.78
2023-03-29T12:06:31.273Z,12.09
2023-03-29T12:09:05.812Z,12.62
2023-03-29T12:11:41.968Z,12.76
2023-03-29T12:14:17.842Z,12.60
2023-03-29T12:16:53.098Z,12.68
2023-03-29T12:19:31.085Z,13.07
2023-03-29T12:22:07.996Z,13.09
2023-03-29T12:24:42.357Z,12.73
2023-03-29T12:27:22.338Z,12.25
2023-03-29T12:30:21.463Z,12.00
2023-03-29T12:33:07.305Z,12.39
2023-03-29T12:35:45.982Z,12.76
2023-03-29T12:38:22.227Z,12.36
2023-03-29T12:41:00.859Z,12.25
2023-03-29T12:43:34.457Z,12.34
2023-03-29T12:46:09.726Z,12.40
2023-03-29T12:48:42.870Z,12.37
2023-03-29T12:51:17.491Z,12.41
2023-03-29T12:53:50.586Z,12.55
2023-03-29T12:56:24.787Z,12.67
2023-03-29T12:59:06.784Z,13.00
2023-03-29T13:01:42.229Z,13.42
2023-03-29T13:04:20.985Z,13.82
2023-03-29T13:07:05.054Z,13.88
2023-03-29T13:09:48.721Z,13.85
2023-03-29T13:12:28.007Z,14.22
2023-03-29T13:15:02.647Z,14.38
2023-03-29T13:17:44.950Z,14.49
2023-03-29T13:20:29.540Z,14.59
2023-03-29T13:23:03.654Z,14.40
2023-03-29T13:25:48.092Z,14.55
2023-03-29T13:28:27.275Z,14.93
2023-03-29T13:31:05.120Z,15.01
2023-03-29T13:33:49.821Z,14.85
2023-03-29T13:36:31.905Z,15.02
2023-03-29T13:39:07.109Z,14.86
2023-03-29T13:41:50.305Z,14.75
2023-03-29T13:44:30.504Z,14.41
2023-03-29T13:47:29.080Z,13.93
2023-03-29T13:50:05.532Z,13.41
2023-03-29T13:52:40.320Z,12.85
2023-03-29T13:55:17.404Z,12.17
2023-03-29T13:57:54.626Z,11.62
2023-03-29T14:00:30.149Z,11.20
2023-03-29T14:03:04.937Z,10.91
2023-03-29T14:05:38.652Z,10.58
2023-03-29T14:08:16.928Z,10.26
2023-03-29T14:10:48.894Z,10.03
2023-03-29T14:13:23.721Z,9.87
2023-03-29T14:15:57.691Z,9.67
2023-03-29T14:18:34.294Z,9.43
2023-03-29T14:21:07.218Z,9.29
2023-03-29T14:23:42.177Z,9.18
2023-03-29T14:26:18.779Z,9.12
2023-03-29T14:28:53.513Z,8.98
2023-03-29T14:31:26.942Z,8.87
2023-03-29T14:34:00.506Z,8.82
2023-03-29T14:36:34.364Z,8.78
2023-03-29T14:39:05.975Z,8.81
2023-03-29T14:41:39.024Z,8.80
2023-03-29T14:44:12.510Z,8.80
2023-03-29T14:46:44.780Z,8.80
2023-03-29T14:49:18.962Z,8.81
2023-03-29T14:51:51.810Z,8.84
2023-03-29T14:54:25.342Z,8.84
2023-03-29T14:56:58.388Z,8.87
2023-03-29T14:59:33.876Z,8.96
2023-03-29T15:02:06.433Z,9.11
2023-03-29T15:04:39.078Z,9.21
2023-03-29T15:07:11.149Z,9.68
2023-03-29T15:09:46.173Z,11.26
2023-03-29T15:12:18.690Z,12.56
2023-03-29T15:14:51.418Z,13.93
2023-03-29T15:17:43.140Z,14.92
2023-03-29T15:20:25.712Z,14.77
2023-03-29T15:23:01.048Z,14.39
2023-03-29T15:25:37.830Z,14.47
2023-03-29T15:28:28.297Z,14.15
2023-03-29T15:31:08.292Z,13.53
2023-03-29T15:33:41.819Z,12.98
2023-03-29T15:36:15.597Z,12.30
2023-03-29T15:38:51.720Z,11.64
2023-03-29T15:41:23.673Z,11.13
2023-03-29T15:43:55.828Z,10.86
2023-03-29T15:46:28.013Z,10.63
2023-03-29T15:49:00.220Z,10.36
2023-03-29T15:51:32.121Z,10.06
2023-03-29T15:54:04.225Z,9.81
2023-03-29T15:56:41.340Z,9.65
2023-03-29T15:59:14.793Z,9.58
2023-03-29T16:01:47.831Z,9.43
2023-03-29T16:04:21.173Z,9.26
2023-03-29T16:06:55.333Z,9.11
2023-03-29T16:09:27.387Z,9.05
2023-03-29T16:12:01.643Z,9.00
2023-03-29T16:14:33.180Z,8.96
2023-03-29T16:17:06.535Z,8.92
2023-03-29T16:19:38.499Z,8.90
2023-03-29T16:22:11.046Z,8.82
2023-03-29T16:24:43.831Z,8.72
2023-03-29T16:27:17.129Z,8.64
2023-03-29T16:29:48.935Z,8.53
2023-03-29T16:32:21.500Z,8.42
2023-03-29T16:34:53.653Z,8.38
2023-03-29T16:37:26.132Z,8.34
2023-03-29T16:39:58.267Z,8.31
2023-03-29T16:42:30.360Z,8.29
2023-03-29T16:45:03.015Z,8.29
2023-03-29T16:47:35.276Z,8.27
2023-03-29T16:50:08.570Z,8.23
2023-03-29T16:52:40.664Z,8.20
2023-03-29T16:55:15.194Z,8.15
2023-03-29T16:57:47.739Z,8.11
2023-03-29T17:00:21.898Z,8.05
2023-03-29T17:02:54.064Z,7.98
2023-03-29T17:05:26.489Z,7.91
2023-03-29T17:07:58.827Z,7.85
2023-03-29T17:10:31.420Z,7.77
2023-03-29T17:13:04.146Z,7.69
2023-03-29T17:15:39.431Z,7.64
2023-03-29T17:18:12.384Z,7.59
2023-03-29T17:20:44.201Z,7.56
2023-03-29T17:23:16.221Z,7.52
2023-03-29T17:25:48.054Z,7.47
2023-03-29T17:28:20.131Z,7.41
2023-03-29T17:30:51.966Z,7.36
2023-03-29T17:33:26.217Z,7.31
2023-03-29T17:35:58.166Z,7.28
2023-03-29T17:38:34.542Z,7.23
2023-03-29T17:41:07.138Z,7.19
2023-03-29T17:43:39.996Z,7.15
2023-03-29T17:46:12.066Z,7.10
2023-03-29T17:48:44.664Z,7.06
2023-03-29T17:51:16.461Z,7.01
2023-03-29T17:53:48.529Z,6.99
2023-03-29T17:56:21.723Z,6.95
2023-03-29T17:58:53.899Z,6.90
2023-03-29T18:01:25.804Z,6.86
2023-03-29T18:03:58.006Z,6.81
2023-03-29T18:06:29.926Z,6.77
2023-03-29T18:09:02.502Z,6.75
2023-03-29T18:11:36.542Z,6.72
2023-03-29T18:14:07.771Z,6.68
2023-03-29T18:16:41.527Z,6.64
2023-03-29T18:19:13.787Z,6.60
2023-03-29T18:21:45.557Z,6.55
2023-03-29T18:24:17.982Z,6.52
2023-03-29T18:26:49.938Z,6.48
2023-03-29T18:29:22.194Z,6.45
2023-03-29T18:31:54.073Z,6.42
2023-03-29T18:34:26.778Z,6.38
2023-03-29T18:36:58.771Z,6.35
2023-03-29T18:39:32.074Z,6.32
2023-03-29T18:42:03.875Z,6.29
2023-03-29T18:44:36.166Z,6.27
2023-03-29T18:47:08.820Z,6.25
2023-03-29T18:49:41.125Z,6.23
2023-03-29T18:52:12.905Z,6.22
2023-03-29T18:54:45.137Z,6.21
2023-03-29T18:57:17.028Z,6.19
2023-03-29T18:59:49.390Z,6.16
2023-03-29T19:02:21.243Z,6.14
2023-03-29T19:04:53.602Z,6.12
2023-03-29T19:07:25.370Z,6.10
2023-03-29T19:09:57.622Z,6.09
2023-03-29T19:12:30.165Z,6.07
2023-03-29T19:15:02.305Z,6.04
2023-03-29T19:17:34.222Z,6.01
2023-03-29T19:20:10.165Z,5.98
2023-03-29T19:22:42.182Z,5.97
2023-03-29T19:25:14.859Z,5.94
2023-03-29T19:27:46.674Z,5.92
2023-03-29T19:30:20.243Z,5.90
2023-03-29T19:32:52.452Z,5.89
2023-03-29T19:35:24.868Z,5.87
2023-03-29T19:37:56.655Z,5.85
2023-03-29T19:40:29.000Z,5.83
2023-03-29T19:43:00.883Z,5.81
2023-03-29T19:45:33.342Z,5.78
2023-03-29T19:48:05.432Z,5.76
2023-03-29T19:50:42.055Z,5.73
2023-03-29T19:53:14.663Z,5.71
2023-03-29T19:55:46.921Z,5.69
2023-03-29T19:58:18.753Z,5.68
2023-03-29T20:00:53.460Z,5.66
2023-03-29T20:03:28.515Z,5.65
2023-03-29T20:06:01.485Z,5.65
2023-03-29T20:08:33.470Z,5.63
2023-03-29T20:11:10.440Z,5.62
2023-03-29T20:13:44.542Z,5.60
2023-03-29T20:16:19.065Z,5.58
2023-03-29T20:18:49.337Z,5.57
2023-03-29T20:21:21.738Z,5.55
2023-03-29T20:23:53.582Z,5.52
2023-03-29T20:26:25.983Z,5.50
2023-03-29T20:28:57.935Z,5.47
2023-03-29T20:31:31.696Z,5.45
2023-03-29T20:34:03.563Z,5.42
2023-03-29T20:36:36.235Z,5.38
2023-03-29T20:39:08.567Z,5.35
2023-03-29T20:41:40.694Z,5.31
2023-03-29T20:44:13.722Z,5.29
2023-03-29T20:46:54.803Z,5.26
2023-03-29T20:49:27.278Z,5.24
2023-03-29T20:51:59.496Z,5.19
2023-03-29T20:54:33.340Z,5.15
2023-03-29T20:57:07.161Z,5.12
2023-03-29T20:59:39.409Z,5.10
2023-03-29T21:02:12.709Z,5.06
2023-03-29T21:04:44.997Z,5.03
2023-03-29T21:07:18.336Z,4.99
2023-03-29T21:09:50.680Z,4.95
2023-03-29T21:12:23.685Z,4.91
2023-03-29T21:14:55.482Z,4.87
2023-03-29T21:17:28.019Z,4.82
2023-03-29T21:19:59.833Z,4.76
2023-03-29T21:22:34.318Z,4.71
2023-03-29T21:25:09.774Z,4.67
2023-03-29T21:27:41.856Z,4.62
2023-03-29T21:30:14.659Z,4.59
2023-03-29T21:32:46.850Z,4.55
2023-03-29T21:35:18.976Z,4.51
2023-03-29T21:37:51.398Z,4.47
2023-03-29T21:40:23.293Z,4.43
2023-03-29T21:42:55.458Z,4.39
2023-03-29T21:45:27.461Z,4.35
2023-03-29T21:48:00.097Z,4.33
2023-03-29T21:50:33.958Z,4.29
2023-03-29T21:53:06.737Z,4.27
2023-03-29T21:55:38.662Z,4.24
2023-03-29T21:58:11.167Z,4.21
2023-03-29T22:00:43.081Z,4.19
2023-03-29T22:03:16.154Z,4.17
2023-03-29T22:05:58.090Z,4.15
2023-03-29T22:08:30.248Z,4.13
2023-03-29T22:11:09.002Z,4.10
2023-03-29T22:13:41.956Z,4.08
2023-03-29T22:16:16.856Z,4.07
2023-03-29T22:18:50.178Z,4.06
2023-03-29T22:21:23.727Z,4.05
2023-03-29T22:23:57.498Z,4.04
2023-03-29T22:26:32.207Z,4.03
2023-03-29T22:29:04.298Z,4.02
2023-03-29T22:31:37.876Z,4.01
2023-03-29T22:34:10.229Z,4.01
2023-03-29T22:36:42.018Z,4.00
2023-03-29T22:39:14.426Z,4.01
2023-03-29T22:41:46.850Z,4.00
2023-03-29T22:44:19.170Z,4.01
2023-03-29T22:46:51.633Z,4.02
2023-03-29T22:49:23.674Z,4.03
2023-03-29T22:51:55.875Z,4.04
2023-03-29T22:54:27.953Z,4.06
2023-03-29T22:57:00.160Z,4.07
2023-03-29T22:59:32.679Z,4.08
2023-03-29T23:02:04.503Z,4.11
2023-03-29T23:04:38.953Z,4.12
2023-03-29T23:07:11.102Z,4.12
2023-03-29T23:09:43.487Z,4.11
2023-03-29T23:12:15.525Z,4.12
2023-03-29T23:14:47.689Z,4.11
2023-03-29T23:17:20.636Z,4.10
2023-03-29T23:19:53.020Z,4.09
2023-03-29T23:22:24.861Z,4.07
2023-03-29T23:24:57.134Z,4.06
2023-03-29T23:27:28.963Z,4.06
2023-03-29T23:30:01.797Z,4.06
2023-03-29T23:32:34.013Z,4.05
2023-03-29T23:35:07.428Z,4.05
2023-03-29T23:37:39.800Z,4.05
2023-03-29T23:40:14.037Z,4.05
2023-03-29T23:42:48.499Z,4.06
2023-03-29T23:45:21.477Z,4.06
2023-03-29T23:47:53.395Z,4.09
2023-03-29T23:50:29.015Z,4.12
2023-03-29T23:53:01.017Z,4.14
2023-03-29T23:55:33.794Z,4.17
2023-03-29T23:58:05.514Z,4.19
